sensor_id;sensor_type;location;lat;lon;timestamp;temperature;humidity
21722;DHT22;11023;48.274;7.794;2023-07-29T00:01:34;18.30;99.90
21722;DHT22;11023;48.274;7.794;2023-07-29T00:04:00;18.30;99.90
21722;DHT22;11023;48.274;7.794;2023-07-29T00:06:26;18.30;99.90
21722;DHT22;11023;48.274;7.794;2023-07-29T00:08:52;18.20;99.90
21722;DHT22;11023;48.274;7.794;2023-07-29T00:11:18;18.10;99.90
21722;DHT22;11023;48.274;7.794;2023-07-29T00:13:44;18.10;99.90
21722;DHT22;11023;48.274;7.794;2023-07-29T00:16:10;18.20;99.90
21722;DHT22;11023;48.274;7.794;2023-07-29T00:18:36;18.10;99.90
21722;DHT22;11023;48.274;7.794;2023-07-29T00:21:01;18.00;99.90
21722;DHT22;11023;48.274;7.794;2023-07-29T00:23:27;18.00;99.90
21722;DHT22;11023;48.274;7.794;2023-07-29T00:25:53;18.00;99.90
21722;DHT22;11023;48.274;7.794;2023-07-29T00:28:19;18.00;99.90
21722;DHT22;11023;48.274;7.794;2023-07-29T00:30:45;18.00;99.90
21722;DHT22;11023;48.274;7.794;2023-07-29T00:33:10;17.90;99.90
21722;DHT22;11023;48.274;7.794;2023-07-29T00:35:36;18.00;99.90
21722;DHT22;11023;48.274;7.794;2023-07-29T00:38:03;18.00;99.90
21722;DHT22;11023;48.274;7.794;2023-07-29T00:40:29;17.90;99.90
21722;DHT22;11023;48.274;7.794;2023-07-29T00:42:55;17.90;99.90
21722;DHT22;11023;48.274;7.794;2023-07-29T00:45:21;17.90;99.90
21722;DHT22;11023;48.274;7.794;2023-07-29T00:47:47;17.90;99.90
21722;DHT22;11023;48.274;7.794;2023-07-29T00:50:14;17.90;99.90
21722;DHT22;11023;48.274;7.794;2023-07-29T00:52:40;17.90;99.90
21722;DHT22;11023;48.274;7.794;2023-07-29T00:55:07;17.90;99.90
21722;DHT22;11023;48.274;7.794;2023-07-29T00:57:33;17.90;99.90
21722;DHT22;11023;48.274;7.794;2023-07-29T01:00:00;17.90;99.90
21722;DHT22;11023;48.274;7.794;2023-07-29T01:02:26;17.90;99.90
21722;DHT22;11023;48.274;7.794;2023-07-29T01:04:57;17.90;99.90
21722;DHT22;11023;48.274;7.794;2023-07-29T01:07:49;17.80;99.90
21722;DHT22;11023;48.274;7.794;2023-07-29T01:10:20;17.80;99.90
21722;DHT22;11023;48.274;7.794;2023-07-29T01:13:10;17.80;99.90
21722;DHT22;11023;48.274;7.794;2023-07-29T01:18:21;17.80;99.90
21722;DHT22;11023;48.274;7.794;2023-07-29T01:20:47;17.80;99.90
21722;DHT22;11023;48.274;7.794;2023-07-29T01:23:16;17.80;99.90
21722;DHT22;11023;48.274;7.794;2023-07-29T01:25:42;17.80;99.90
21722;DHT22;11023;48.274;7.794;2023-07-29T01:28:08;17.80;99.90
21722;DHT22;11023;48.274;7.794;2023-07-29T01:30:39;17.80;99.90
21722;DHT22;11023;48.274;7.794;2023-07-29T01:33:17;17.80;99.90
21722;DHT22;11023;48.274;7.794;2023-07-29T01:35:50;17.70;99.90
21722;DHT22;11023;48.274;7.794;2023-07-29T01:38:19;17.70;99.90
21722;DHT22;11023;48.274;7.794;2023-07-29T01:40:48;17.70;99.90
21722;DHT22;11023;48.274;7.794;2023-07-29T01:43:14;17.80;99.90
21722;DHT22;11023;48.274;7.794;2023-07-29T01:45:41;17.80;99.90
21722;DHT22;11023;48.274;7.794;2023-07-29T01:48:07;17.80;99.90
21722;DHT22;11023;48.274;7.794;2023-07-29T01:50:34;17.80;99.90
21722;DHT22;11023;48.274;7.794;2023-07-29T01:53:00;17.90;99.90
21722;DHT22;11023;48.274;7.794;2023-07-29T01:55:26;17.90;99.90
21722;DHT22;11023;48.274;7.794;2023-07-29T01:57:52;17.90;99.90
21722;DHT22;11023;48.274;7.794;2023-07-29T02:00:21;17.90;99.90
21722;DHT22;11023;48.274;7.794;2023-07-29T02:02:48;17.90;99.90
21722;DHT22;11023;48.274;7.794;2023-07-29T02:05:13;18.00;99.90
21722;DHT22;11023;48.274;7.794;2023-07-29T02:07:39;18.00;99.90
21722;DHT22;11023;48.274;7.794;2023-07-29T02:10:05;18.00;99.90
21722;DHT22;11023;48.274;7.794;2023-07-29T02:12:33;18.00;99.90
21722;DHT22;11023;48.274;7.794;2023-07-29T02:15:00;18.00;99.90
21722;DHT22;11023;48.274;7.794;2023-07-29T02:17:26;18.10;99.90
21722;DHT22;11023;48.274;7.794;2023-07-29T02:19:52;18.10;99.90
21722;DHT22;11023;48.274;7.794;2023-07-29T02:22:18;18.10;99.90
21722;DHT22;11023;48.274;7.794;2023-07-29T02:24:44;18.10;99.90
21722;DHT22;11023;48.274;7.794;2023-07-29T02:27:11;18.10;99.90
21722;DHT22;11023;48.274;7.794;2023-07-29T02:29:36;18.10;99.90
21722;DHT22;11023;48.274;7.794;2023-07-29T02:32:02;18.10;99.90
21722;DHT22;11023;48.274;7.794;2023-07-29T02:34:29;18.10;99.90
21722;DHT22;11023;48.274;7.794;2023-07-29T02:36:55;18.10;99.90
21722;DHT22;11023;48.274;7.794;2023-07-29T02:39:21;18.10;99.90
21722;DHT22;11023;48.274;7.794;2023-07-29T02:41:48;18.10;99.90
21722;DHT22;11023;48.274;7.794;2023-07-29T02:44:15;18.10;99.90
21722;DHT22;11023;48.274;7.794;2023-07-29T02:46:40;18.10;99.90
21722;DHT22;11023;48.274;7.794;2023-07-29T02:49:06;18.20;99.90
21722;DHT22;11023;48.274;7.794;2023-07-29T02:51:34;18.10;99.90
21722;DHT22;11023;48.274;7.794;2023-07-29T02:53:59;18.10;99.90
21722;DHT22;11023;48.274;7.794;2023-07-29T02:56:25;18.20;99.90
21722;DHT22;11023;48.274;7.794;2023-07-29T02:58:51;18.20;99.90
21722;DHT22;11023;48.274;7.794;2023-07-29T03:01:19;18.20;99.90
21722;DHT22;11023;48.274;7.794;2023-07-29T03:03:45;18.20;99.90
21722;DHT22;11023;48.274;7.794;2023-07-29T03:06:13;18.20;99.90
21722;DHT22;11023;48.274;7.794;2023-07-29T03:08:39;18.30;99.90
21722;DHT22;11023;48.274;7.794;2023-07-29T03:11:09;18.30;99.90
21722;DHT22;11023;48.274;7.794;2023-07-29T03:13:36;18.40;99.90
21722;DHT22;11023;48.274;7.794;2023-07-29T03:16:10;18.40;99.90
21722;DHT22;11023;48.274;7.794;2023-07-29T03:18:36;18.40;99.90
21722;DHT22;11023;48.274;7.794;2023-07-29T03:21:02;18.40;99.90
21722;DHT22;11023;48.274;7.794;2023-07-29T03:23:29;18.40;99.90
21722;DHT22;11023;48.274;7.794;2023-07-29T03:25:56;18.40;99.90
21722;DHT22;11023;48.274;7.794;2023-07-29T03:28:26;18.40;99.90
21722;DHT22;11023;48.274;7.794;2023-07-29T03:30:53;18.40;99.90
21722;DHT22;11023;48.274;7.794;2023-07-29T03:33:19;18.40;99.90
21722;DHT22;11023;48.274;7.794;2023-07-29T03:35:45;18.30;99.90
21722;DHT22;11023;48.274;7.794;2023-07-29T03:38:12;18.30;99.90
21722;DHT22;11023;48.274;7.794;2023-07-29T03:40:38;18.30;99.90
21722;DHT22;11023;48.274;7.794;2023-07-29T03:43:04;18.30;99.90
21722;DHT22;11023;48.274;7.794;2023-07-29T03:45:32;18.30;99.90
21722;DHT22;11023;48.274;7.794;2023-07-29T03:47:58;18.30;99.90
21722;DHT22;11023;48.274;7.794;2023-07-29T03:50:24;18.30;99.90
21722;DHT22;11023;48.274;7.794;2023-07-29T03:52:50;18.30;99.90
21722;DHT22;11023;48.274;7.794;2023-07-29T03:55:16;18.30;99.90
21722;DHT22;11023;48.274;7.794;2023-07-29T03:57:43;18.30;99.90
21722;DHT22;11023;48.274;7.794;2023-07-29T04:00:09;18.30;99.90
21722;DHT22;11023;48.274;7.794;2023-07-29T04:02:35;18.30;99.90
21722;DHT22;11023;48.274;7.794;2023-07-29T04:05:05;18.40;99.90
21722;DHT22;11023;48.274;7.794;2023-07-29T04:07:31;18.40;99.90
21722;DHT22;11023;48.274;7.794;2023-07-29T04:09:58;18.30;99.90
21722;DHT22;11023;48.274;7.794;2023-07-29T04:12:24;18.30;99.90
21722;DHT22;11023;48.274;7.794;2023-07-29T04:14:50;18.20;99.90
21722;DHT22;11023;48.274;7.794;2023-07-29T04:17:15;18.30;99.90
21722;DHT22;11023;48.274;7.794;2023-07-29T04:19:41;18.30;99.90
21722;DHT22;11023;48.274;7.794;2023-07-29T04:22:08;18.30;99.90
21722;DHT22;11023;48.274;7.794;2023-07-29T04:24:34;18.30;99.90
21722;DHT22;11023;48.274;7.794;2023-07-29T04:26:59;18.30;99.90
21722;DHT22;11023;48.274;7.794;2023-07-29T04:29:25;18.20;99.90
21722;DHT22;11023;48.274;7.794;2023-07-29T04:31:51;18.30;99.90
21722;DHT22;11023;48.274;7.794;2023-07-29T04:34:20;18.30;99.90
21722;DHT22;11023;48.274;7.794;2023-07-29T04:36:47;18.30;99.90
21722;DHT22;11023;48.274;7.794;2023-07-29T04:39:14;18.30;99.90
21722;DHT22;11023;48.274;7.794;2023-07-29T04:41:40;18.30;99.90
21722;DHT22;11023;48.274;7.794;2023-07-29T04:44:06;18.30;99.90
21722;DHT22;11023;48.274;7.794;2023-07-29T04:46:32;18.30;99.90
21722;DHT22;11023;48.274;7.794;2023-07-29T04:48:58;18.30;99.90
21722;DHT22;11023;48.274;7.794;2023-07-29T04:51:24;18.30;99.90
21722;DHT22;11023;48.274;7.794;2023-07-29T04:53:51;18.30;99.90
21722;DHT22;11023;48.274;7.794;2023-07-29T04:56:17;18.40;99.90
21722;DHT22;11023;48.274;7.794;2023-07-29T04:58:43;18.40;99.90
21722;DHT22;11023;48.274;7.794;2023-07-29T05:01:08;18.40;99.90
21722;DHT22;11023;48.274;7.794;2023-07-29T05:03:35;18.40;99.90
21722;DHT22;11023;48.274;7.794;2023-07-29T05:06:02;18.50;99.90
21722;DHT22;11023;48.274;7.794;2023-07-29T05:08:28;18.50;99.90
21722;DHT22;11023;48.274;7.794;2023-07-29T05:10:54;18.60;99.90
21722;DHT22;11023;48.274;7.794;2023-07-29T05:13:20;18.60;99.90
21722;DHT22;11023;48.274;7.794;2023-07-29T05:15:49;18.70;99.90
21722;DHT22;11023;48.274;7.794;2023-07-29T05:18:16;18.70;99.90
21722;DHT22;11023;48.274;7.794;2023-07-29T05:20:43;18.70;99.90
21722;DHT22;11023;48.274;7.794;2023-07-29T05:23:08;18.80;99.90
21722;DHT22;11023;48.274;7.794;2023-07-29T05:25:36;18.70;99.90
21722;DHT22;11023;48.274;7.794;2023-07-29T05:28:02;18.80;99.90
21722;DHT22;11023;48.274;7.794;2023-07-29T05:30:28;18.80;99.90
21722;DHT22;11023;48.274;7.794;2023-07-29T05:32:57;18.80;99.90
21722;DHT22;11023;48.274;7.794;2023-07-29T05:35:23;18.80;99.90
21722;DHT22;11023;48.274;7.794;2023-07-29T05:37:50;18.70;99.90
21722;DHT22;11023;48.274;7.794;2023-07-29T05:40:16;18.80;99.90
21722;DHT22;11023;48.274;7.794;2023-07-29T05:42:42;18.60;99.90
21722;DHT22;11023;48.274;7.794;2023-07-29T05:45:08;18.60;99.90
21722;DHT22;11023;48.274;7.794;2023-07-29T05:47:35;18.60;99.90
21722;DHT22;11023;48.274;7.794;2023-07-29T05:50:00;18.50;99.90
21722;DHT22;11023;48.274;7.794;2023-07-29T05:52:30;18.50;99.90
21722;DHT22;11023;48.274;7.794;2023-07-29T05:54:56;18.60;99.90
21722;DHT22;11023;48.274;7.794;2023-07-29T05:57:22;18.50;99.90
21722;DHT22;11023;48.274;7.794;2023-07-29T05:59:48;18.50;99.90
21722;DHT22;11023;48.274;7.794;2023-07-29T06:02:14;18.60;99.90
21722;DHT22;11023;48.274;7.794;2023-07-29T06:04:39;18.50;99.90
21722;DHT22;11023;48.274;7.794;2023-07-29T06:07:06;18.50;99.90
21722;DHT22;11023;48.274;7.794;2023-07-29T06:09:34;18.60;99.90
21722;DHT22;11023;48.274;7.794;2023-07-29T06:12:00;18.60;99.90
21722;DHT22;11023;48.274;7.794;2023-07-29T06:14:27;18.60;99.90
21722;DHT22;11023;48.274;7.794;2023-07-29T06:16:53;18.60;99.90
21722;DHT22;11023;48.274;7.794;2023-07-29T06:19:20;18.70;99.90
21722;DHT22;11023;48.274;7.794;2023-07-29T06:21:46;18.80;99.90
21722;DHT22;11023;48.274;7.794;2023-07-29T06:24:12;18.80;99.90
21722;DHT22;11023;48.274;7.794;2023-07-29T06:26:38;18.90;99.90
21722;DHT22;11023;48.274;7.794;2023-07-29T06:29:03;18.90;99.90
21722;DHT22;11023;48.274;7.794;2023-07-29T06:31:29;18.90;99.90
21722;DHT22;11023;48.274;7.794;2023-07-29T06:33:55;18.90;99.90
21722;DHT22;11023;48.274;7.794;2023-07-29T06:36:21;19.00;99.90
21722;DHT22;11023;48.274;7.794;2023-07-29T06:38:47;19.00;99.90
21722;DHT22;11023;48.274;7.794;2023-07-29T06:41:13;19.10;99.90
21722;DHT22;11023;48.274;7.794;2023-07-29T06:43:40;19.10;99.90
21722;DHT22;11023;48.274;7.794;2023-07-29T06:46:06;19.20;99.90
21722;DHT22;11023;48.274;7.794;2023-07-29T06:48:31;19.30;99.90
21722;DHT22;11023;48.274;7.794;2023-07-29T06:50:57;19.50;99.90
21722;DHT22;11023;48.274;7.794;2023-07-29T06:53:26;19.60;99.90
21722;DHT22;11023;48.274;7.794;2023-07-29T06:55:55;19.70;99.90
21722;DHT22;11023;48.274;7.794;2023-07-29T06:58:21;19.90;99.90
21722;DHT22;11023;48.274;7.794;2023-07-29T07:00:49;20.00;99.90
21722;DHT22;11023;48.274;7.794;2023-07-29T07:03:14;20.20;99.90
21722;DHT22;11023;48.274;7.794;2023-07-29T07:05:40;20.40;99.90
21722;DHT22;11023;48.274;7.794;2023-07-29T07:08:10;20.60;99.90
21722;DHT22;11023;48.274;7.794;2023-07-29T07:10:35;20.70;99.90
21722;DHT22;11023;48.274;7.794;2023-07-29T07:13:01;20.80;99.90
21722;DHT22;11023;48.274;7.794;2023-07-29T07:15:28;20.90;99.90
21722;DHT22;11023;48.274;7.794;2023-07-29T07:17:54;21.00;99.90
21722;DHT22;11023;48.274;7.794;2023-07-29T07:20:19;21.10;99.90
21722;DHT22;11023;48.274;7.794;2023-07-29T07:22:45;21.20;99.90
21722;DHT22;11023;48.274;7.794;2023-07-29T07:25:11;21.30;99.90
21722;DHT22;11023;48.274;7.794;2023-07-29T07:27:37;21.30;99.90
21722;DHT22;11023;48.274;7.794;2023-07-29T07:30:04;21.40;99.90
21722;DHT22;11023;48.274;7.794;2023-07-29T07:32:30;21.60;99.90
21722;DHT22;11023;48.274;7.794;2023-07-29T07:34:55;21.70;99.90
21722;DHT22;11023;48.274;7.794;2023-07-29T07:37:21;21.90;99.90
21722;DHT22;11023;48.274;7.794;2023-07-29T07:39:47;22.00;99.90
21722;DHT22;11023;48.274;7.794;2023-07-29T07:42:12;22.20;99.90
21722;DHT22;11023;48.274;7.794;2023-07-29T07:44:38;22.30;99.90
21722;DHT22;11023;48.274;7.794;2023-07-29T07:47:04;22.40;99.90
21722;DHT22;11023;48.274;7.794;2023-07-29T07:49:29;22.50;99.90
21722;DHT22;11023;48.274;7.794;2023-07-29T07:51:55;22.70;99.90
21722;DHT22;11023;48.274;7.794;2023-07-29T07:54:21;22.90;99.90
21722;DHT22;11023;48.274;7.794;2023-07-29T07:56:46;23.10;99.90
21722;DHT22;11023;48.274;7.794;2023-07-29T07:59:12;23.30;99.90
21722;DHT22;11023;48.274;7.794;2023-07-29T08:01:39;23.50;99.90
21722;DHT22;11023;48.274;7.794;2023-07-29T08:04:05;23.60;99.90
21722;DHT22;11023;48.274;7.794;2023-07-29T08:06:32;23.80;99.90
21722;DHT22;11023;48.274;7.794;2023-07-29T08:08:58;23.90;99.90
21722;DHT22;11023;48.274;7.794;2023-07-29T08:11:23;24.00;99.90
21722;DHT22;11023;48.274;7.794;2023-07-29T08:13:49;24.10;99.90
21722;DHT22;11023;48.274;7.794;2023-07-29T08:16:14;24.20;99.90
21722;DHT22;11023;48.274;7.794;2023-07-29T08:18:40;24.20;99.90
21722;DHT22;11023;48.274;7.794;2023-07-29T08:21:06;24.30;99.90
21722;DHT22;11023;48.274;7.794;2023-07-29T08:23:34;24.50;99.90
21722;DHT22;11023;48.274;7.794;2023-07-29T08:26:04;24.60;99.90
21722;DHT22;11023;48.274;7.794;2023-07-29T08:28:38;24.70;99.90
21722;DHT22;11023;48.274;7.794;2023-07-29T08:31:04;24.80;99.90
21722;DHT22;11023;48.274;7.794;2023-07-29T08:33:31;24.90;99.90
21722;DHT22;11023;48.274;7.794;2023-07-29T08:35:59;25.00;99.90
21722;DHT22;11023;48.274;7.794;2023-07-29T08:38:24;25.10;99.90
21722;DHT22;11023;48.274;7.794;2023-07-29T08:41:16;25.20;99.90
21722;DHT22;11023;48.274;7.794;2023-07-29T08:44:06;25.30;99.90
21722;DHT22;11023;48.274;7.794;2023-07-29T08:46:34;25.30;99.90
21722;DHT22;11023;48.274;7.794;2023-07-29T08:49:01;25.30;99.90
21722;DHT22;11023;48.274;7.794;2023-07-29T08:51:27;25.30;99.90
21722;DHT22;11023;48.274;7.794;2023-07-29T08:53:54;25.20;99.90
21722;DHT22;11023;48.274;7.794;2023-07-29T08:56:20;25.20;99.90
21722;DHT22;11023;48.274;7.794;2023-07-29T08:58:47;25.20;99.90
21722;DHT22;11023;48.274;7.794;2023-07-29T09:01:14;25.30;99.90
21722;DHT22;11023;48.274;7.794;2023-07-29T09:03:41;25.30;99.90
21722;DHT22;11023;48.274;7.794;2023-07-29T09:06:08;25.50;99.90
21722;DHT22;11023;48.274;7.794;2023-07-29T09:08:34;25.60;99.90
21722;DHT22;11023;48.274;7.794;2023-07-29T09:11:00;25.60;99.90
21722;DHT22;11023;48.274;7.794;2023-07-29T09:13:26;25.70;99.90
21722;DHT22;11023;48.274;7.794;2023-07-29T09:15:57;25.60;99.90
21722;DHT22;11023;48.274;7.794;2023-07-29T09:18:23;25.70;99.90
21722;DHT22;11023;48.274;7.794;2023-07-29T09:20:51;25.70;99.90
21722;DHT22;11023;48.274;7.794;2023-07-29T09:23:17;25.90;99.90
21722;DHT22;11023;48.274;7.794;2023-07-29T09:25:43;26.00;99.90
21722;DHT22;11023;48.274;7.794;2023-07-29T09:28:12;26.00;99.90
21722;DHT22;11023;48.274;7.794;2023-07-29T09:30:39;26.10;99.90
21722;DHT22;11023;48.274;7.794;2023-07-29T09:33:05;26.20;99.90
21722;DHT22;11023;48.274;7.794;2023-07-29T09:35:33;26.30;99.90
21722;DHT22;11023;48.274;7.794;2023-07-29T09:37:59;26.40;99.90
21722;DHT22;11023;48.274;7.794;2023-07-29T09:40:25;26.40;99.90
21722;DHT22;11023;48.274;7.794;2023-07-29T09:42:53;26.30;99.90
21722;DHT22;11023;48.274;7.794;2023-07-29T09:45:24;26.30;99.90
21722;DHT22;11023;48.274;7.794;2023-07-29T09:47:50;26.30;99.90
21722;DHT22;11023;48.274;7.794;2023-07-29T09:50:16;26.30;99.90
21722;DHT22;11023;48.274;7.794;2023-07-29T09:52:42;26.20;99.90
21722;DHT22;11023;48.274;7.794;2023-07-29T09:55:18;26.20;99.90
21722;DHT22;11023;48.274;7.794;2023-07-29T09:57:44;26.30;99.90
21722;DHT22;11023;48.274;7.794;2023-07-29T10:00:13;26.50;99.90
21722;DHT22;11023;48.274;7.794;2023-07-29T10:02:41;26.50;99.90
21722;DHT22;11023;48.274;7.794;2023-07-29T10:05:08;26.50;99.90
21722;DHT22;11023;48.274;7.794;2023-07-29T10:07:36;26.50;99.90
21722;DHT22;11023;48.274;7.794;2023-07-29T10:10:04;26.50;99.90
21722;DHT22;11023;48.274;7.794;2023-07-29T10:12:34;26.50;99.90
21722;DHT22;11023;48.274;7.794;2023-07-29T10:15:04;26.60;99.90
21722;DHT22;11023;48.274;7.794;2023-07-29T10:17:31;26.60;99.90
21722;DHT22;11023;48.274;7.794;2023-07-29T10:19:58;26.60;99.90
21722;DHT22;11023;48.274;7.794;2023-07-29T10:22:27;26.70;99.90
21722;DHT22;11023;48.274;7.794;2023-07-29T10:25:02;26.80;99.90
21722;DHT22;11023;48.274;7.794;2023-07-29T10:27:28;27.00;99.90
21722;DHT22;11023;48.274;7.794;2023-07-29T10:29:55;27.00;99.90
21722;DHT22;11023;48.274;7.794;2023-07-29T10:32:25;27.00;99.90
21722;DHT22;11023;48.274;7.794;2023-07-29T10:34:52;27.00;99.90
21722;DHT22;11023;48.274;7.794;2023-07-29T10:37:18;27.00;99.90
21722;DHT22;11023;48.274;7.794;2023-07-29T10:39:53;26.80;99.90
21722;DHT22;11023;48.274;7.794;2023-07-29T10:42:19;26.90;99.90
21722;DHT22;11023;48.274;7.794;2023-07-29T10:44:54;26.90;99.90
21722;DHT22;11023;48.274;7.794;2023-07-29T10:47:22;26.80;99.90
21722;DHT22;11023;48.274;7.794;2023-07-29T10:49:56;26.70;99.90
21722;DHT22;11023;48.274;7.794;2023-07-29T10:54:57;26.80;99.90
21722;DHT22;11023;48.274;7.794;2023-07-29T10:57:37;26.80;99.90
21722;DHT22;11023;48.274;7.794;2023-07-29T11:00:05;26.90;99.90
21722;DHT22;11023;48.274;7.794;2023-07-29T11:02:31;26.90;99.90
21722;DHT22;11023;48.274;7.794;2023-07-29T11:04:58;27.00;99.90
21722;DHT22;11023;48.274;7.794;2023-07-29T11:07:26;27.10;99.90
21722;DHT22;11023;48.274;7.794;2023-07-29T11:10:03;27.20;99.90
21722;DHT22;11023;48.274;7.794;2023-07-29T11:12:40;27.40;99.90
21722;DHT22;11023;48.274;7.794;2023-07-29T11:17:43;27.60;99.90
21722;DHT22;11023;48.274;7.794;2023-07-29T11:20:10;27.60;99.90
21722;DHT22;11023;48.274;7.794;2023-07-29T11:22:36;27.50;99.90
21722;DHT22;11023;48.274;7.794;2023-07-29T11:25:03;27.60;99.90
21722;DHT22;11023;48.274;7.794;2023-07-29T11:27:28;27.70;99.90
21722;DHT22;11023;48.274;7.794;2023-07-29T11:29:58;27.90;99.90
21722;DHT22;11023;48.274;7.794;2023-07-29T11:32:25;27.90;99.90
21722;DHT22;11023;48.274;7.794;2023-07-29T11:34:51;27.80;99.90
21722;DHT22;11023;48.274;7.794;2023-07-29T11:37:16;27.90;99.90
21722;DHT22;11023;48.274;7.794;2023-07-29T11:39:43;27.80;99.90
21722;DHT22;11023;48.274;7.794;2023-07-29T11:42:16;27.80;99.90
21722;DHT22;11023;48.274;7.794;2023-07-29T11:44:42;27.80;99.90
21722;DHT22;11023;48.274;7.794;2023-07-29T11:47:11;27.80;99.90
21722;DHT22;11023;48.274;7.794;2023-07-29T11:49:39;27.70;99.90
21722;DHT22;11023;48.274;7.794;2023-07-29T11:52:09;27.60;99.90
21722;DHT22;11023;48.274;7.794;2023-07-29T11:54:37;27.70;99.90
21722;DHT22;11023;48.274;7.794;2023-07-29T11:57:08;27.70;99.90
21722;DHT22;11023;48.274;7.794;2023-07-29T11:59:35;27.60;99.90
21722;DHT22;11023;48.274;7.794;2023-07-29T12:02:01;27.60;99.90
21722;DHT22;11023;48.274;7.794;2023-07-29T12:04:29;27.70;99.90
21722;DHT22;11023;48.274;7.794;2023-07-29T12:06:55;27.70;99.90
21722;DHT22;11023;48.274;7.794;2023-07-29T12:09:21;27.80;99.90
21722;DHT22;11023;48.274;7.794;2023-07-29T12:11:47;27.80;99.90
21722;DHT22;11023;48.274;7.794;2023-07-29T12:14:13;27.80;99.90
21722;DHT22;11023;48.274;7.794;2023-07-29T12:16:47;27.80;99.90
21722;DHT22;11023;48.274;7.794;2023-07-29T12:19:13;27.70;99.90
21722;DHT22;11023;48.274;7.794;2023-07-29T12:21:43;27.70;99.90
21722;DHT22;11023;48.274;7.794;2023-07-29T12:24:09;27.80;99.90
21722;DHT22;11023;48.274;7.794;2023-07-29T12:26:36;27.80;99.90
21722;DHT22;11023;48.274;7.794;2023-07-29T12:29:15;27.90;99.90
21722;DHT22;11023;48.274;7.794;2023-07-29T12:31:41;27.90;99.90
21722;DHT22;11023;48.274;7.794;2023-07-29T12:34:07;27.80;99.90
21722;DHT22;11023;48.274;7.794;2023-07-29T12:36:43;27.80;99.90
21722;DHT22;11023;48.274;7.794;2023-07-29T12:39:30;27.90;99.90
21722;DHT22;11023;48.274;7.794;2023-07-29T12:41:59;27.80;99.90
21722;DHT22;11023;48.274;7.794;2023-07-29T12:44:30;27.80;99.90
21722;DHT22;11023;48.274;7.794;2023-07-29T12:46:55;27.80;99.90
21722;DHT22;11023;48.274;7.794;2023-07-29T12:49:21;27.90;99.90
21722;DHT22;11023;48.274;7.794;2023-07-29T12:51:48;27.80;99.90
21722;DHT22;11023;48.274;7.794;2023-07-29T12:54:13;27.80;99.90
21722;DHT22;11023;48.274;7.794;2023-07-29T12:56:39;27.90;99.90
21722;DHT22;11023;48.274;7.794;2023-07-29T12:59:05;28.10;99.90
21722;DHT22;11023;48.274;7.794;2023-07-29T13:01:31;28.40;99.90
21722;DHT22;11023;48.274;7.794;2023-07-29T13:03:57;28.50;99.90
21722;DHT22;11023;48.274;7.794;2023-07-29T13:06:22;28.60;99.90
21722;DHT22;11023;48.274;7.794;2023-07-29T13:08:48;28.90;99.90
21722;DHT22;11023;48.274;7.794;2023-07-29T13:11:15;29.00;99.90
21722;DHT22;11023;48.274;7.794;2023-07-29T13:13:41;29.30;99.90
21722;DHT22;11023;48.274;7.794;2023-07-29T13:16:07;29.50;99.90
21722;DHT22;11023;48.274;7.794;2023-07-29T13:18:33;29.70;99.90
21722;DHT22;11023;48.274;7.794;2023-07-29T13:20:59;29.80;99.90
21722;DHT22;11023;48.274;7.794;2023-07-29T13:23:26;29.70;99.90
21722;DHT22;11023;48.274;7.794;2023-07-29T13:25:52;29.80;99.90
21722;DHT22;11023;48.274;7.794;2023-07-29T13:28:18;29.80;99.90
21722;DHT22;11023;48.274;7.794;2023-07-29T13:30:44;29.70;99.90
21722;DHT22;11023;48.274;7.794;2023-07-29T13:33:10;29.90;99.90
21722;DHT22;11023;48.274;7.794;2023-07-29T13:35:35;30.00;99.90
21722;DHT22;11023;48.274;7.794;2023-07-29T13:38:01;30.00;99.90
21722;DHT22;11023;48.274;7.794;2023-07-29T13:40:27;29.90;99.90
21722;DHT22;11023;48.274;7.794;2023-07-29T13:42:53;29.50;99.90
21722;DHT22;11023;48.274;7.794;2023-07-29T13:45:19;29.40;99.90
21722;DHT22;11023;48.274;7.794;2023-07-29T13:47:45;29.10;99.90
21722;DHT22;11023;48.274;7.794;2023-07-29T13:50:11;29.00;99.90
21722;DHT22;11023;48.274;7.794;2023-07-29T13:52:37;28.90;99.90
21722;DHT22;11023;48.274;7.794;2023-07-29T13:55:04;28.90;99.90
21722;DHT22;11023;48.274;7.794;2023-07-29T13:57:30;28.90;99.90
21722;DHT22;11023;48.274;7.794;2023-07-29T13:59:56;28.90;99.90
21722;DHT22;11023;48.274;7.794;2023-07-29T14:02:22;28.90;99.90
21722;DHT22;11023;48.274;7.794;2023-07-29T14:04:47;28.80;99.90
21722;DHT22;11023;48.274;7.794;2023-07-29T14:07:13;28.80;99.90
21722;DHT22;11023;48.274;7.794;2023-07-29T14:09:38;28.80;99.90
21722;DHT22;11023;48.274;7.794;2023-07-29T14:12:05;28.60;99.90
21722;DHT22;11023;48.274;7.794;2023-07-29T14:14:31;28.60;99.90
21722;DHT22;11023;48.274;7.794;2023-07-29T14:16:56;28.60;99.90
21722;DHT22;11023;48.274;7.794;2023-07-29T14:19:23;28.70;99.90
21722;DHT22;11023;48.274;7.794;2023-07-29T14:21:49;28.70;99.90
21722;DHT22;11023;48.274;7.794;2023-07-29T14:24:14;28.70;99.90
21722;DHT22;11023;48.274;7.794;2023-07-29T14:26:41;28.70;99.90
21722;DHT22;11023;48.274;7.794;2023-07-29T14:29:07;28.70;99.90
21722;DHT22;11023;48.274;7.794;2023-07-29T14:31:33;28.60;99.90
21722;DHT22;11023;48.274;7.794;2023-07-29T14:33:59;28.40;99.90
21722;DHT22;11023;48.274;7.794;2023-07-29T14:36:25;28.30;99.90
21722;DHT22;11023;48.274;7.794;2023-07-29T14:38:51;28.20;99.90
21722;DHT22;11023;48.274;7.794;2023-07-29T14:41:17;28.10;99.90
21722;DHT22;11023;48.274;7.794;2023-07-29T14:43:43;28.10;99.90
21722;DHT22;11023;48.274;7.794;2023-07-29T14:46:09;28.20;99.90
21722;DHT22;11023;48.274;7.794;2023-07-29T14:48:35;28.20;99.90
21722;DHT22;11023;48.274;7.794;2023-07-29T14:51:00;28.30;99.90
21722;DHT22;11023;48.274;7.794;2023-07-29T14:53:26;28.40;99.90
21722;DHT22;11023;48.274;7.794;2023-07-29T14:55:52;28.60;99.90
21722;DHT22;11023;48.274;7.794;2023-07-29T14:58:18;28.70;99.90
21722;DHT22;11023;48.274;7.794;2023-07-29T15:00:43;28.80;99.90
21722;DHT22;11023;48.274;7.794;2023-07-29T15:03:09;28.70;99.90
21722;DHT22;11023;48.274;7.794;2023-07-29T15:05:35;28.70;99.90
21722;DHT22;11023;48.274;7.794;2023-07-29T15:08:01;28.60;99.90
21722;DHT22;11023;48.274;7.794;2023-07-29T15:10:27;28.40;99.90
21722;DHT22;11023;48.274;7.794;2023-07-29T15:12:53;28.20;99.90
21722;DHT22;11023;48.274;7.794;2023-07-29T15:15:19;28.10;99.90
21722;DHT22;11023;48.274;7.794;2023-07-29T15:17:44;27.80;99.90
21722;DHT22;11023;48.274;7.794;2023-07-29T15:20:11;27.30;99.90
21722;DHT22;11023;48.274;7.794;2023-07-29T15:22:37;26.90;99.90
21722;DHT22;11023;48.274;7.794;2023-07-29T15:25:03;26.50;99.90
21722;DHT22;11023;48.274;7.794;2023-07-29T15:27:29;26.10;99.90
21722;DHT22;11023;48.274;7.794;2023-07-29T15:29:55;25.90;99.90
21722;DHT22;11023;48.274;7.794;2023-07-29T15:32:22;25.80;99.90
21722;DHT22;11023;48.274;7.794;2023-07-29T15:34:49;25.60;99.90
21722;DHT22;11023;48.274;7.794;2023-07-29T15:37:15;25.50;99.90